createdAt,value
2018-10-16T00:01:57.703Z,10.70
2018-10-16T00:04:26.227Z,11.93
2018-10-16T00:06:54.718Z,7.03
2018-10-16T00:09:23.244Z,6.73
2018-10-16T00:12:01.693Z,7.17
2018-10-16T00:14:30.583Z,11.40
2018-10-16T00:16:59.471Z,7.67
2018-10-16T00:19:27.930Z,6.10
2018-10-16T00:21:56.402Z,8.47
2018-10-16T00:24:24.882Z,10.63
2018-10-16T00:26:53.386Z,10.30
2018-10-16T00:29:22.495Z,7.47
2018-10-16T00:31:51.256Z,8.80
2018-10-16T00:34:19.749Z,9.63
2018-10-16T00:36:48.332Z,8.20
2018-10-16T00:39:17.447Z,8.57
2018-10-16T00:41:51.225Z,10.47
2018-10-16T00:44:19.750Z,9.63
2018-10-16T00:46:48.214Z,10.03
2018-10-16T00:49:16.694Z,12.20
2018-10-16T00:51:45.237Z,7.50
2018-10-16T00:54:13.723Z,11.53
2018-10-16T00:56:42.197Z,7.80
2018-10-16T00:59:10.704Z,10.93
2018-10-16T01:01:39.153Z,8.47
2018-10-16T01:04:08.378Z,10.53
2018-10-16T01:06:37.578Z,7.47
2018-10-16T01:09:09.441Z,12.80
2018-10-16T01:11:38.213Z,8.63
2018-10-16T01:14:06.740Z,11.17
2018-10-16T01:16:35.251Z,11.07
2018-10-16T01:19:03.758Z,9.50
2018-10-16T01:21:32.277Z,9.33
2018-10-16T01:24:00.758Z,7.90
2018-10-16T01:26:29.239Z,11.30
2018-10-16T01:28:57.723Z,8.57
2018-10-16T01:31:26.581Z,9.30
2018-10-16T01:33:55.182Z,7.90
2018-10-16T01:36:23.670Z,14.27
2018-10-16T01:38:52.200Z,10.97
2018-10-16T01:41:20.658Z,9.43
2018-10-16T01:43:49.214Z,7.70
2018-10-16T01:46:18.008Z,10.17
2018-10-16T01:48:46.477Z,6.80
2018-10-16T01:51:14.926Z,10.43
2018-10-16T01:53:43.400Z,12.80
2018-10-16T01:56:11.865Z,8.40
2018-10-16T01:58:40.342Z,7.93
2018-10-16T02:01:08.811Z,7.00
2018-10-16T02:03:37.282Z,11.20
2018-10-16T02:06:05.743Z,8.30
2018-10-16T02:08:34.198Z,9.27
2018-10-16T02:11:02.691Z,7.67
2018-10-16T02:13:31.130Z,10.13
2018-10-16T02:15:59.614Z,11.03
2018-10-16T02:18:28.054Z,12.33
2018-10-16T02:20:56.513Z,9.20
2018-10-16T02:23:24.963Z,10.07
2018-10-16T02:25:53.426Z,8.87
2018-10-16T02:28:21.858Z,8.13
2018-10-16T02:30:50.348Z,9.13
2018-10-16T02:33:18.810Z,10.43
2018-10-16T02:35:47.424Z,8.40
2018-10-16T02:38:15.823Z,9.27
2018-10-16T02:40:44.314Z,9.17
2018-10-16T02:43:12.790Z,12.50
2018-10-16T02:45:41.268Z,7.23
2018-10-16T02:48:09.782Z,10.60
2018-10-16T02:50:38.250Z,8.77
2018-10-16T02:53:06.718Z,7.47
2018-10-16T02:55:35.179Z,9.63
2018-10-16T02:58:03.841Z,8.50
2018-10-16T03:00:32.300Z,15.13
2018-10-16T03:03:00.765Z,8.60
2018-10-16T03:05:29.246Z,7.83
2018-10-16T03:07:57.718Z,10.47
2018-10-16T03:10:26.233Z,8.37
2018-10-16T03:12:54.697Z,9.67
2018-10-16T03:15:23.195Z,11.70
2018-10-16T03:17:51.654Z,7.00
2018-10-16T03:20:20.187Z,7.90
2018-10-16T03:22:48.670Z,9.27
2018-10-16T03:25:17.125Z,8.13
2018-10-16T03:27:45.589Z,8.03
2018-10-16T03:30:14.082Z,8.40
2018-10-16T03:32:42.585Z,6.80
2018-10-16T03:35:12.016Z,8.13
2018-10-16T03:37:41.448Z,7.73
2018-10-16T03:40:10.926Z,6.63
2018-10-16T03:42:40.463Z,7.30
2018-10-16T03:45:10.745Z,7.93
2018-10-16T03:47:39.705Z,9.10
2018-10-16T03:50:09.170Z,11.20
2018-10-16T03:52:37.661Z,10.53
2018-10-16T03:55:06.630Z,10.73
2018-10-16T03:57:35.111Z,7.67
2018-10-16T04:00:03.671Z,8.37
2018-10-16T04:02:32.145Z,13.27
2018-10-16T04:05:00.633Z,13.57
2018-10-16T04:07:29.155Z,8.57
2018-10-16T04:09:57.591Z,10.13
2018-10-16T04:12:26.062Z,10.37
2018-10-16T04:14:54.504Z,8.63
2018-10-16T04:17:22.974Z,8.90
2018-10-16T04:19:51.748Z,14.63
2018-10-16T04:22:20.302Z,10.20
2018-10-16T04:24:48.742Z,9.60
2018-10-16T04:27:17.198Z,9.00
2018-10-16T04:29:45.661Z,11.80
2018-10-16T04:32:14.138Z,8.37
2018-10-16T04:34:42.639Z,10.47
2018-10-16T04:37:11.073Z,9.53
2018-10-16T04:39:39.553Z,10.20
2018-10-16T04:42:08.011Z,9.60
2018-10-16T04:44:36.497Z,15.13
2018-10-16T04:47:05.455Z,10.70
2018-10-16T04:49:33.902Z,14.37
2018-10-16T04:52:02.346Z,8.90
2018-10-16T04:54:30.854Z,8.03
2018-10-16T04:56:59.305Z,9.38
2018-10-16T04:59:27.844Z,11.93
2018-10-16T05:01:56.292Z,9.53
2018-10-16T05:04:24.794Z,9.00
2018-10-16T05:06:53.273Z,13.33
2018-10-16T05:09:21.758Z,10.77
2018-10-16T05:11:52.115Z,12.13
2018-10-16T05:14:20.588Z,9.67
2018-10-16T05:16:49.052Z,8.60
2018-10-16T05:19:17.664Z,12.30
2018-10-16T05:21:45.974Z,9.80
2018-10-16T05:24:14.420Z,7.70
2018-10-16T05:26:42.927Z,12.20
2018-10-16T05:29:11.666Z,8.43
2018-10-16T05:31:40.221Z,9.50
2018-10-16T05:34:09.332Z,9.43
2018-10-16T05:36:38.247Z,9.23
2018-10-16T05:39:09.321Z,9.03
2018-10-16T05:41:37.829Z,7.73
2018-10-16T05:44:06.403Z,8.77
2018-10-16T05:46:34.858Z,12.83
2018-10-16T05:49:03.478Z,8.57
2018-10-16T05:51:31.925Z,12.57
2018-10-16T05:54:00.399Z,10.43
2018-10-16T05:56:28.874Z,10.43
2018-10-16T05:58:57.319Z,10.13
2018-10-16T06:01:26.176Z,8.80
2018-10-16T06:03:54.609Z,9.97
2018-10-16T06:06:23.059Z,10.83
2018-10-16T06:08:51.553Z,11.40
2018-10-16T06:11:20.000Z,8.20
2018-10-16T06:13:48.694Z,8.53
2018-10-16T06:16:17.158Z,7.70
2018-10-16T06:18:45.627Z,7.67
2018-10-16T06:21:14.103Z,9.60
2018-10-16T06:23:42.577Z,9.80
2018-10-16T06:26:11.066Z,13.60
2018-10-16T06:28:39.515Z,11.60
2018-10-16T06:31:07.993Z,7.33
2018-10-16T06:33:36.533Z,8.77
2018-10-16T06:36:05.225Z,10.97
2018-10-16T06:38:33.686Z,11.37
2018-10-16T06:41:02.301Z,8.67
2018-10-16T06:43:30.934Z,9.33
2018-10-16T06:45:59.381Z,10.13
2018-10-16T06:48:27.994Z,5.93
2018-10-16T06:50:56.331Z,9.03
2018-10-16T06:53:24.858Z,9.83
2018-10-16T06:55:53.410Z,12.23
2018-10-16T06:58:21.877Z,8.80
2018-10-16T07:00:50.335Z,10.17
2018-10-16T07:03:18.791Z,13.40
2018-10-16T07:05:47.257Z,8.17
2018-10-16T07:08:15.749Z,9.67
2018-10-16T07:10:44.245Z,6.63
2018-10-16T07:13:12.687Z,11.57
2018-10-16T07:15:41.185Z,9.60
2018-10-16T07:18:09.643Z,8.17
2018-10-16T07:20:38.120Z,9.20
2018-10-16T07:23:06.633Z,8.70
2018-10-16T07:25:35.133Z,10.77
2018-10-16T07:28:03.634Z,11.30
2018-10-16T07:30:32.093Z,8.07
2018-10-16T07:33:00.549Z,12.10
2018-10-16T07:35:29.069Z,8.13
2018-10-16T07:37:57.712Z,7.20
2018-10-16T07:40:26.051Z,12.00
2018-10-16T07:42:54.502Z,10.40
2018-10-16T07:45:22.950Z,7.67
2018-10-16T07:47:51.421Z,10.83
2018-10-16T07:50:19.909Z,7.83
2018-10-16T07:52:48.379Z,10.27
2018-10-16T07:55:16.877Z,7.83
2018-10-16T07:57:45.313Z,9.87
2018-10-16T08:00:13.845Z,10.87
2018-10-16T08:02:43.549Z,13.63
2018-10-16T08:05:12.882Z,9.67
2018-10-16T08:07:42.071Z,11.90
2018-10-16T08:10:12.326Z,12.00
2018-10-16T08:12:40.983Z,13.50
2018-10-16T08:15:10.094Z,11.67
2018-10-16T08:17:38.966Z,10.47
2018-10-16T08:20:07.434Z,12.00
2018-10-16T08:22:35.886Z,12.57
2018-10-16T08:25:04.657Z,17.00
2018-10-16T08:27:33.207Z,9.73
2018-10-16T08:30:01.860Z,13.37
2018-10-16T08:32:30.442Z,10.53
2018-10-16T08:34:59.062Z,11.10
2018-10-16T08:38:36.442Z,17.57
2018-10-16T08:41:07.208Z,17.70
2018-10-16T08:43:48.586Z,13.07
2018-10-16T08:46:28.766Z,18.23
2018-10-16T08:49:08.774Z,13.67
2018-10-16T08:51:43.715Z,13.93
2018-10-16T08:54:12.209Z,10.37
2018-10-16T08:56:40.999Z,12.47
2018-10-16T08:59:09.522Z,8.93
2018-10-16T09:01:37.978Z,12.77
2018-10-16T09:04:06.581Z,9.37
2018-10-16T09:06:35.122Z,12.93
2018-10-16T09:09:05.230Z,11.23
2018-10-16T09:11:33.680Z,11.57
2018-10-16T09:14:02.217Z,16.07
2018-10-16T09:16:30.699Z,12.07
2018-10-16T09:18:59.165Z,10.63
2018-10-16T09:21:27.637Z,15.33
2018-10-16T09:23:56.117Z,15.50
2018-10-16T09:26:24.614Z,10.90
2018-10-16T09:28:53.125Z,17.47
2018-10-16T09:31:21.587Z,9.97
2018-10-16T09:33:50.039Z,12.93
2018-10-16T09:36:18.696Z,10.33
2018-10-16T09:38:47.183Z,14.33
2018-10-16T09:41:15.654Z,18.47
2018-10-16T09:43:44.139Z,16.23
2018-10-16T09:46:12.591Z,12.13
2018-10-16T09:48:41.106Z,15.63
2018-10-16T09:51:09.593Z,13.63
2018-10-16T09:53:38.079Z,10.53
2018-10-16T09:56:06.612Z,11.30
2018-10-16T09:58:35.062Z,10.30
2018-10-16T10:01:09.010Z,10.63
2018-10-16T10:03:37.468Z,11.37
2018-10-16T10:06:05.974Z,10.43
2018-10-16T10:08:34.463Z,13.70
2018-10-16T10:11:03.030Z,10.67
2018-10-16T10:13:31.469Z,11.87
2018-10-16T10:15:59.930Z,9.03
2018-10-16T10:18:28.410Z,13.33
2018-10-16T10:20:56.870Z,11.20
2018-10-16T10:23:25.395Z,14.57
2018-10-16T10:25:53.861Z,12.80
2018-10-16T10:28:22.295Z,13.77
2018-10-16T10:30:50.775Z,12.57
2018-10-16T10:33:19.210Z,10.43
2018-10-16T10:35:47.785Z,10.93
2018-10-16T10:38:16.389Z,12.73
2018-10-16T10:40:44.855Z,15.13
2018-10-16T10:43:13.302Z,13.03
2018-10-16T10:45:41.806Z,12.57
2018-10-16T10:48:10.382Z,8.90
2018-10-16T10:50:39.209Z,8.57
2018-10-16T10:53:07.385Z,9.40
2018-10-16T10:55:35.870Z,14.57
2018-10-16T10:58:04.345Z,13.00
2018-10-16T11:00:32.855Z,13.40
2018-10-16T11:03:01.446Z,12.47
2018-10-16T11:05:29.861Z,12.40
2018-10-16T11:07:58.301Z,13.67
2018-10-16T11:10:26.758Z,11.87
2018-10-16T11:12:55.227Z,11.30
2018-10-16T11:15:23.736Z,15.30
2018-10-16T11:17:52.205Z,18.43
2018-10-16T11:20:20.685Z,10.20
2018-10-16T11:22:49.210Z,12.70
2018-10-16T11:25:17.652Z,12.07
2018-10-16T11:27:46.289Z,11.70
2018-10-16T11:30:15.639Z,13.80
2018-10-16T11:32:44.257Z,9.80
2018-10-16T11:35:13.959Z,9.20
2018-10-16T11:37:42.516Z,12.00
2018-10-16T11:40:11.451Z,10.27
2018-10-16T11:42:40.656Z,12.17
2018-10-16T11:45:09.344Z,9.27
2018-10-16T11:47:38.413Z,14.30
2018-10-16T11:50:08.301Z,9.87
2018-10-16T11:52:36.769Z,17.57
2018-10-16T11:55:06.378Z,7.90
2018-10-16T11:57:34.848Z,12.97
2018-10-16T12:00:03.423Z,10.47
2018-10-16T12:02:32.045Z,17.37
2018-10-16T12:05:00.453Z,11.97
2018-10-16T12:07:28.914Z,9.70
2018-10-16T12:09:57.374Z,8.13
2018-10-16T12:12:25.878Z,9.03
2018-10-16T12:14:54.375Z,16.03
2018-10-16T12:17:31.982Z,11.37
2018-10-16T12:20:04.075Z,12.83
2018-10-16T12:22:32.638Z,10.63
2018-10-16T12:25:01.164Z,12.50
2018-10-16T12:27:29.618Z,11.60
2018-10-16T12:29:58.110Z,11.77
2018-10-16T12:32:26.621Z,14.17
2018-10-16T12:34:55.114Z,11.93
2018-10-16T12:37:23.606Z,9.40
2018-10-16T12:39:52.150Z,13.00
2018-10-16T12:42:20.548Z,9.00
2018-10-16T12:44:49.062Z,11.77
2018-10-16T12:47:17.520Z,9.90
2018-10-16T12:49:45.987Z,9.97
2018-10-16T12:52:14.558Z,12.20
2018-10-16T12:54:42.989Z,9.83
2018-10-16T12:57:11.488Z,11.23
2018-10-16T12:59:39.981Z,10.33
2018-10-16T13:02:08.568Z,9.87
2018-10-16T13:04:37.031Z,11.57
2018-10-16T13:07:10.180Z,8.50
2018-10-16T13:09:38.682Z,10.40
2018-10-16T13:12:07.190Z,10.50
2018-10-16T13:14:35.705Z,8.57
2018-10-16T13:17:04.259Z,8.30
2018-10-16T13:19:32.725Z,11.13
2018-10-16T13:22:01.221Z,14.63
2018-10-16T13:24:29.622Z,12.33
2018-10-16T13:26:58.117Z,8.10
2018-10-16T13:29:26.724Z,7.87
2018-10-16T13:31:55.068Z,9.70
2018-10-16T13:34:23.548Z,7.00
2018-10-16T13:36:52.046Z,9.33
2018-10-16T13:39:20.498Z,13.60
2018-10-16T13:41:48.966Z,8.50
2018-10-16T13:44:17.458Z,8.83
2018-10-16T13:46:45.930Z,8.97
2018-10-16T13:49:14.381Z,8.20
2018-10-16T13:51:42.878Z,12.23
2018-10-16T13:54:11.330Z,9.60
2018-10-16T13:56:39.849Z,8.80
2018-10-16T13:59:08.250Z,9.77
2018-10-16T14:01:36.725Z,9.03
2018-10-16T14:04:05.273Z,11.47
2018-10-16T14:06:33.723Z,11.03
2018-10-16T14:09:02.262Z,8.80
2018-10-16T14:11:30.762Z,8.47
2018-10-16T14:13:59.263Z,15.10
2018-10-16T14:16:27.753Z,14.83
2018-10-16T14:18:56.238Z,10.53
2018-10-16T14:21:25.198Z,8.60
2018-10-16T14:23:53.662Z,11.43
2018-10-16T14:26:22.161Z,12.03
2018-10-16T14:28:50.641Z,10.43
2018-10-16T14:31:19.129Z,8.47
2018-10-16T14:33:47.665Z,8.40
2018-10-16T14:36:16.085Z,9.57
2018-10-16T14:38:44.540Z,6.83
2018-10-16T14:41:13.043Z,7.57
2018-10-16T14:43:41.499Z,10.23
2018-10-16T14:46:10.006Z,10.63
2018-10-16T14:48:38.460Z,14.20
2018-10-16T14:51:06.918Z,9.60
2018-10-16T14:53:35.393Z,7.60
2018-10-16T14:56:03.909Z,10.60
2018-10-16T14:58:32.351Z,6.47
2018-10-16T15:01:00.869Z,12.63
2018-10-16T15:03:29.341Z,7.87
2018-10-16T15:05:57.818Z,8.33
2018-10-16T15:08:26.316Z,8.97
2018-10-16T15:10:54.790Z,8.57
2018-10-16T15:13:23.283Z,6.70
2018-10-16T15:15:51.754Z,8.93
2018-10-16T15:18:20.211Z,7.80
2018-10-16T15:20:48.668Z,7.90
2018-10-16T15:23:17.153Z,8.47
2018-10-16T15:25:45.601Z,10.17
2018-10-16T15:28:14.102Z,9.20
2018-10-16T15:30:42.510Z,7.57
2018-10-16T15:33:10.989Z,10.50
2018-10-16T15:35:39.551Z,7.40
2018-10-16T15:38:08.046Z,6.63
2018-10-16T15:40:36.500Z,9.00
2018-10-16T15:43:04.999Z,10.03
2018-10-16T15:45:33.494Z,8.87
2018-10-16T15:48:01.982Z,6.97
2018-10-16T15:50:30.460Z,7.50
2018-10-16T15:52:58.911Z,7.30
2018-10-16T15:55:27.362Z,11.10
2018-10-16T15:57:55.874Z,9.30
2018-10-16T16:00:24.342Z,10.00
2018-10-16T16:02:52.843Z,11.60
2018-10-16T16:05:21.338Z,10.83
2018-10-16T16:07:49.811Z,7.60
2018-10-16T16:10:18.291Z,21.77
2018-10-16T16:12:46.743Z,12.03
2018-10-16T16:15:15.229Z,10.53
2018-10-16T16:17:44.224Z,13.87
2018-10-16T16:20:14.041Z,13.17
2018-10-16T16:22:42.509Z,18.53
2018-10-16T16:25:13.104Z,16.30
2018-10-16T16:27:41.580Z,17.03
2018-10-16T16:30:12.207Z,17.50
2018-10-16T16:32:40.918Z,14.97
2018-10-16T16:35:09.463Z,15.13
2018-10-16T16:37:37.899Z,12.97
2018-10-16T16:40:08.367Z,15.47
2018-10-16T16:42:36.817Z,11.33
2018-10-16T16:45:06.093Z,14.93
2018-10-16T16:47:34.542Z,11.87
2018-10-16T16:50:03.053Z,16.07
2018-10-16T16:52:31.523Z,20.57
2018-10-16T16:54:59.975Z,18.73
2018-10-16T16:57:28.502Z,16.40
2018-10-16T16:59:56.986Z,22.20
2018-10-16T17:02:25.435Z,24.73
2018-10-16T17:04:53.909Z,18.40
2018-10-16T17:07:22.381Z,12.90
2018-10-16T17:09:50.847Z,17.23
2018-10-16T17:12:19.351Z,16.83
2018-10-16T17:14:47.787Z,11.47
2018-10-16T17:17:16.267Z,15.27
2018-10-16T17:19:44.730Z,15.77
2018-10-16T17:22:13.196Z,14.03
2018-10-16T17:24:41.765Z,12.20
2018-10-16T17:27:10.138Z,13.60
2018-10-16T17:29:38.622Z,13.93
2018-10-16T17:32:07.093Z,12.40
2018-10-16T17:34:35.741Z,11.37
2018-10-16T17:37:04.253Z,14.63
2018-10-16T17:39:32.773Z,10.00
2018-10-16T17:42:01.229Z,11.57
2018-10-16T17:44:29.698Z,12.83
2018-10-16T17:46:59.169Z,10.80
2018-10-16T17:49:27.667Z,12.73
2018-10-16T17:51:56.138Z,14.70
2018-10-16T17:54:24.588Z,16.13
2018-10-16T17:56:53.115Z,13.17
2018-10-16T17:59:21.575Z,10.03
2018-10-16T18:01:50.058Z,9.80
2018-10-16T18:04:18.542Z,19.23
2018-10-16T18:06:46.990Z,16.87
2018-10-16T18:09:15.460Z,18.77
2018-10-16T18:11:44.066Z,17.53
2018-10-16T18:14:12.506Z,19.13
2018-10-16T18:16:41.054Z,19.40
2018-10-16T18:19:09.538Z,16.83
2018-10-16T18:21:37.997Z,22.30
2018-10-16T18:24:06.939Z,14.50
2018-10-16T18:26:35.402Z,12.57
2018-10-16T18:29:03.893Z,12.77
2018-10-16T18:31:32.351Z,11.67
2018-10-16T18:34:00.827Z,13.80
2018-10-16T18:36:29.294Z,15.13
2018-10-16T18:38:57.821Z,12.03
2018-10-16T18:41:26.255Z,13.67
2018-10-16T18:43:54.738Z,15.37
2018-10-16T18:46:23.203Z,18.40
2018-10-16T18:48:51.720Z,15.87
2018-10-16T18:51:20.203Z,14.03
2018-10-16T18:53:48.721Z,17.37
2018-10-16T18:56:17.202Z,15.40
2018-10-16T18:58:45.798Z,17.57
2018-10-16T19:01:14.295Z,16.93
2018-10-16T19:03:42.798Z,15.30
2018-10-16T19:06:11.237Z,18.80
2018-10-16T19:08:39.719Z,14.87
2018-10-16T19:11:08.197Z,17.03
2018-10-16T19:13:36.670Z,15.47
2018-10-16T19:16:05.634Z,13.67
2018-10-16T19:18:34.098Z,19.90
2018-10-16T19:21:02.570Z,14.90
2018-10-16T19:23:31.050Z,17.67
2018-10-16T19:25:59.486Z,18.83
2018-10-16T19:28:27.973Z,17.07
2018-10-16T19:30:56.467Z,15.10
2018-10-16T19:33:24.931Z,16.03
2018-10-16T19:35:53.417Z,16.07
2018-10-16T19:38:21.902Z,16.47
2018-10-16T19:40:50.342Z,17.10
2018-10-16T19:43:18.802Z,13.60
2018-10-16T19:45:47.285Z,16.13
2018-10-16T19:48:15.777Z,22.37
2018-10-16T19:50:44.246Z,19.23
2018-10-16T19:53:12.746Z,16.53
2018-10-16T19:55:41.225Z,14.67
2018-10-16T19:58:09.682Z,16.07
2018-10-16T20:00:38.115Z,31.07
2018-10-16T20:03:06.597Z,18.47
2018-10-16T20:05:35.091Z,20.10
2018-10-16T20:08:03.635Z,21.23
2018-10-16T20:10:32.125Z,17.80
2018-10-16T20:13:00.583Z,19.63
2018-10-16T20:15:29.059Z,18.43
2018-10-16T20:17:57.523Z,16.57
2018-10-16T20:20:26.013Z,17.93
2018-10-16T20:22:54.467Z,17.17
2018-10-16T20:25:23.042Z,18.53
2018-10-16T20:27:51.478Z,21.70
2018-10-16T20:30:19.947Z,22.93
2018-10-16T20:32:48.394Z,19.17
2018-10-16T20:35:16.889Z,21.90
2018-10-16T20:37:45.350Z,16.60
2018-10-16T20:40:13.823Z,17.20
2018-10-16T20:42:42.282Z,16.57
2018-10-16T20:45:10.735Z,17.27
2018-10-16T20:47:39.240Z,15.60
2018-10-16T20:50:07.881Z,20.23
2018-10-16T20:52:36.498Z,19.70
2018-10-16T20:55:05.661Z,18.50
2018-10-16T20:57:34.103Z,21.30
2018-10-16T21:00:03.286Z,21.27
2018-10-16T21:02:31.723Z,19.00
2018-10-16T21:05:00.502Z,20.73
2018-10-16T21:07:28.805Z,19.93
2018-10-16T21:09:57.266Z,19.87
2018-10-16T21:12:25.714Z,19.40
2018-10-16T21:14:54.186Z,23.83
2018-10-16T21:17:22.622Z,22.57
2018-10-16T21:19:51.116Z,14.43
2018-10-16T21:22:19.569Z,20.27
2018-10-16T21:24:48.015Z,21.63
2018-10-16T21:27:16.470Z,16.37
2018-10-16T21:29:44.945Z,18.27
2018-10-16T21:32:13.473Z,19.43
2018-10-16T21:34:41.922Z,18.53
2018-10-16T21:37:10.445Z,20.47
2018-10-16T21:39:39.305Z,19.67
2018-10-16T21:42:08.097Z,23.17
2018-10-16T21:44:36.589Z,19.00
2018-10-16T21:47:05.492Z,21.40
2018-10-16T21:49:33.936Z,19.03
2018-10-16T21:52:02.394Z,15.87
2018-10-16T21:54:30.846Z,19.17
2018-10-16T21:56:59.368Z,21.23
2018-10-16T21:59:27.874Z,15.87
2018-10-16T22:02:01.834Z,15.07
2018-10-16T22:04:30.337Z,19.03
2018-10-16T22:06:58.849Z,21.57
2018-10-16T22:09:27.317Z,21.53
2018-10-16T22:11:55.787Z,16.53
2018-10-16T22:14:24.279Z,18.37
2018-10-16T22:16:53.661Z,17.30
2018-10-16T22:19:22.092Z,19.50
2018-10-16T22:21:50.577Z,19.47
2018-10-16T22:24:19.025Z,14.23
2018-10-16T22:26:47.517Z,18.07
2018-10-16T22:29:15.964Z,18.53
2018-10-16T22:31:44.481Z,20.47
2018-10-16T22:34:12.973Z,17.10
2018-10-16T22:36:41.454Z,15.00
2018-10-16T22:39:10.781Z,19.97
2018-10-16T22:41:39.553Z,21.53
2018-10-16T22:44:08.659Z,19.93
2018-10-16T22:46:37.420Z,21.73
2018-10-16T22:49:06.378Z,16.93
2018-10-16T22:51:34.824Z,26.13
2018-10-16T22:54:03.337Z,20.27
2018-10-16T22:56:31.814Z,17.33
2018-10-16T22:59:00.319Z,19.57
2018-10-16T23:01:28.805Z,21.77
2018-10-16T23:03:57.326Z,16.47
2018-10-16T23:06:25.824Z,18.07
2018-10-16T23:08:54.289Z,24.73
2018-10-16T23:11:22.716Z,19.73
2018-10-16T23:13:51.213Z,20.00
2018-10-16T23:16:19.673Z,20.10
2018-10-16T23:18:48.135Z,19.17
2018-10-16T23:21:16.579Z,19.93
2018-10-16T23:23:45.031Z,23.80
2018-10-16T23:26:13.513Z,16.93
2018-10-16T23:28:42.005Z,21.33
2018-10-16T23:31:10.558Z,20.63
2018-10-16T23:33:38.966Z,23.50
2018-10-16T23:36:07.518Z,24.03
2018-10-16T23:38:35.985Z,19.47
2018-10-16T23:41:04.512Z,23.60
2018-10-16T23:43:32.996Z,20.83
2018-10-16T23:46:01.416Z,18.53
2018-10-16T23:48:29.932Z,23.83
2018-10-16T23:50:58.394Z,17.10
2018-10-16T23:53:26.819Z,18.87
2018-10-16T23:55:55.301Z,23.40
2018-10-16T23:58:23.746Z,28.20
